sensor_id;sensor_type;location;lat;lon;timestamp;P1;durP1;ratioP1;P2;durP2;ratioP2
9976;SDS011;5029;47.378;11.776;2022-12-07T00:01:49;4.73;;;4.20;;
9976;SDS011;5029;47.378;11.776;2022-12-07T00:06:54;5.27;;;4.53;;
9976;SDS011;5029;47.378;11.776;2022-12-07T00:11:57;6.30;;;5.10;;
9976;SDS011;5029;47.378;11.776;2022-12-07T00:17:01;12.90;;;11.80;;
9976;SDS011;5029;47.378;11.776;2022-12-07T00:22:06;9.90;;;9.00;;
9976;SDS011;5029;47.378;11.776;2022-12-07T00:27:09;5.97;;;5.17;;
9976;SDS011;5029;47.378;11.776;2022-12-07T00:32:13;5.47;;;4.97;;
9976;SDS011;5029;47.378;11.776;2022-12-07T00:37:18;6.20;;;5.10;;
9976;SDS011;5029;47.378;11.776;2022-12-07T00:42:21;5.33;;;4.83;;
9976;SDS011;5029;47.378;11.776;2022-12-07T00:47:25;5.63;;;4.90;;
9976;SDS011;5029;47.378;11.776;2022-12-07T00:52:30;5.13;;;4.60;;
9976;SDS011;5029;47.378;11.776;2022-12-07T00:57:33;5.93;;;5.30;;
9976;SDS011;5029;47.378;11.776;2022-12-07T01:02:37;6.33;;;4.90;;
9976;SDS011;5029;47.378;11.776;2022-12-07T01:07:42;5.77;;;4.80;;
9976;SDS011;5029;47.378;11.776;2022-12-07T01:12:45;7.93;;;5.27;;
9976;SDS011;5029;47.378;11.776;2022-12-07T01:17:49;6.17;;;5.20;;
9976;SDS011;5029;47.378;11.776;2022-12-07T01:22:54;5.50;;;4.67;;
9976;SDS011;5029;47.378;11.776;2022-12-07T01:27:57;5.83;;;5.10;;
9976;SDS011;5029;47.378;11.776;2022-12-07T01:33:01;5.13;;;4.57;;
9976;SDS011;5029;47.378;11.776;2022-12-07T01:38:06;6.10;;;4.47;;
9976;SDS011;5029;47.378;11.776;2022-12-07T01:43:13;6.07;;;4.53;;
9976;SDS011;5029;47.378;11.776;2022-12-07T01:48:20;6.00;;;5.00;;
9976;SDS011;5029;47.378;11.776;2022-12-07T01:53:28;5.40;;;4.57;;
9976;SDS011;5029;47.378;11.776;2022-12-07T01:58:34;4.80;;;4.30;;
9976;SDS011;5029;47.378;11.776;2022-12-07T02:03:39;5.63;;;4.67;;
9976;SDS011;5029;47.378;11.776;2022-12-07T02:08:45;4.57;;;4.10;;
9976;SDS011;5029;47.378;11.776;2022-12-07T02:13:49;5.63;;;4.70;;
9976;SDS011;5029;47.378;11.776;2022-12-07T02:18:57;6.20;;;4.70;;
9976;SDS011;5029;47.378;11.776;2022-12-07T02:24:15;5.07;;;4.43;;
9976;SDS011;5029;47.378;11.776;2022-12-07T02:29:33;5.97;;;4.77;;
9976;SDS011;5029;47.378;11.776;2022-12-07T02:34:42;5.00;;;4.50;;
9976;SDS011;5029;47.378;11.776;2022-12-07T02:39:51;6.40;;;4.30;;
9976;SDS011;5029;47.378;11.776;2022-12-07T02:45:01;5.50;;;4.57;;
9976;SDS011;5029;47.378;11.776;2022-12-07T02:50:06;5.47;;;4.53;;
9976;SDS011;5029;47.378;11.776;2022-12-07T02:55:11;8.43;;;4.50;;
9976;SDS011;5029;47.378;11.776;2022-12-07T03:00:17;5.77;;;4.53;;
9976;SDS011;5029;47.378;11.776;2022-12-07T03:05:34;8.43;;;4.60;;
9976;SDS011;5029;47.378;11.776;2022-12-07T03:10:48;6.03;;;4.80;;
9976;SDS011;5029;47.378;11.776;2022-12-07T03:16:02;5.43;;;4.50;;
9976;SDS011;5029;47.378;11.776;2022-12-07T03:21:12;5.50;;;4.30;;
9976;SDS011;5029;47.378;11.776;2022-12-07T03:26:19;4.73;;;4.30;;
9976;SDS011;5029;47.378;11.776;2022-12-07T03:31:28;6.03;;;4.57;;
9976;SDS011;5029;47.378;11.776;2022-12-07T03:36:37;5.13;;;4.40;;
9976;SDS011;5029;47.378;11.776;2022-12-07T03:41:43;5.33;;;4.50;;
9976;SDS011;5029;47.378;11.776;2022-12-07T03:46:50;5.47;;;4.60;;
9976;SDS011;5029;47.378;11.776;2022-12-07T03:51:57;5.97;;;4.33;;
9976;SDS011;5029;47.378;11.776;2022-12-07T03:57:05;4.73;;;4.17;;
9976;SDS011;5029;47.378;11.776;2022-12-07T04:02:12;5.27;;;4.37;;
9976;SDS011;5029;47.378;11.776;2022-12-07T04:07:16;4.53;;;4.10;;
9976;SDS011;5029;47.378;11.776;2022-12-07T04:12:20;6.10;;;4.77;;
9976;SDS011;5029;47.378;11.776;2022-12-07T04:17:24;5.40;;;4.10;;
9976;SDS011;5029;47.378;11.776;2022-12-07T04:22:28;6.33;;;4.20;;
9976;SDS011;5029;47.378;11.776;2022-12-07T04:27:31;4.20;;;3.80;;
9976;SDS011;5029;47.378;11.776;2022-12-07T04:32:37;5.13;;;4.03;;
9976;SDS011;5029;47.378;11.776;2022-12-07T04:37:40;4.40;;;4.00;;
9976;SDS011;5029;47.378;11.776;2022-12-07T04:42:44;5.17;;;4.20;;
9976;SDS011;5029;47.378;11.776;2022-12-07T04:47:49;5.83;;;4.03;;
9976;SDS011;5029;47.378;11.776;2022-12-07T04:52:52;4.47;;;3.60;;
9976;SDS011;5029;47.378;11.776;2022-12-07T04:57:56;4.97;;;4.10;;
9976;SDS011;5029;47.378;11.776;2022-12-07T05:03:00;4.10;;;3.70;;
9976;SDS011;5029;47.378;11.776;2022-12-07T05:08:04;4.40;;;4.00;;
9976;SDS011;5029;47.378;11.776;2022-12-07T05:13:08;4.57;;;3.90;;
9976;SDS011;5029;47.378;11.776;2022-12-07T05:18:13;4.40;;;4.00;;
9976;SDS011;5029;47.378;11.776;2022-12-07T05:23:16;4.40;;;3.60;;
9976;SDS011;5029;47.378;11.776;2022-12-07T05:28:20;5.40;;;3.90;;
9976;SDS011;5029;47.378;11.776;2022-12-07T05:33:25;4.77;;;3.80;;
9976;SDS011;5029;47.378;11.776;2022-12-07T05:38:28;4.57;;;3.63;;
9976;SDS011;5029;47.378;11.776;2022-12-07T05:43:33;4.43;;;3.73;;
9976;SDS011;5029;47.378;11.776;2022-12-07T05:48:38;4.00;;;3.30;;
9976;SDS011;5029;47.378;11.776;2022-12-07T05:53:41;4.07;;;3.67;;
9976;SDS011;5029;47.378;11.776;2022-12-07T05:58:45;4.87;;;3.73;;
9976;SDS011;5029;47.378;11.776;2022-12-07T06:04:07;5.13;;;3.73;;
9976;SDS011;5029;47.378;11.776;2022-12-07T06:09:11;4.20;;;3.70;;
9976;SDS011;5029;47.378;11.776;2022-12-07T06:14:15;4.50;;;3.90;;
9976;SDS011;5029;47.378;11.776;2022-12-07T06:19:20;4.40;;;3.93;;
9976;SDS011;5029;47.378;11.776;2022-12-07T06:24:23;4.00;;;3.60;;
9976;SDS011;5029;47.378;11.776;2022-12-07T06:29:27;4.20;;;3.80;;
9976;SDS011;5029;47.378;11.776;2022-12-07T06:34:32;4.00;;;3.60;;
9976;SDS011;5029;47.378;11.776;2022-12-07T06:39:36;4.60;;;3.90;;
9976;SDS011;5029;47.378;11.776;2022-12-07T06:44:40;5.07;;;4.00;;
9976;SDS011;5029;47.378;11.776;2022-12-07T06:49:45;4.47;;;3.90;;
9976;SDS011;5029;47.378;11.776;2022-12-07T06:54:48;4.77;;;4.30;;
9976;SDS011;5029;47.378;11.776;2022-12-07T06:59:52;4.40;;;4.00;;
9976;SDS011;5029;47.378;11.776;2022-12-07T07:04:57;4.63;;;4.00;;
9976;SDS011;5029;47.378;11.776;2022-12-07T07:10:00;6.47;;;3.97;;
9976;SDS011;5029;47.378;11.776;2022-12-07T07:15:05;6.60;;;4.10;;
9976;SDS011;5029;47.378;11.776;2022-12-07T07:20:11;4.77;;;3.90;;
9976;SDS011;5029;47.378;11.776;2022-12-07T07:25:15;4.93;;;4.30;;
9976;SDS011;5029;47.378;11.776;2022-12-07T07:30:19;5.87;;;4.20;;
9976;SDS011;5029;47.378;11.776;2022-12-07T07:35:25;4.37;;;3.97;;
9976;SDS011;5029;47.378;11.776;2022-12-07T07:40:29;5.97;;;4.27;;
9976;SDS011;5029;47.378;11.776;2022-12-07T07:45:32;5.77;;;4.60;;
9976;SDS011;5029;47.378;11.776;2022-12-07T07:50:37;4.83;;;3.97;;
9976;SDS011;5029;47.378;11.776;2022-12-07T07:55:41;5.10;;;3.80;;
9976;SDS011;5029;47.378;11.776;2022-12-07T08:00:52;5.87;;;3.97;;
9976;SDS011;5029;47.378;11.776;2022-12-07T08:05:57;4.60;;;4.10;;
9976;SDS011;5029;47.378;11.776;2022-12-07T08:11:00;4.67;;;4.13;;
9976;SDS011;5029;47.378;11.776;2022-12-07T08:16:07;4.13;;;3.73;;
9976;SDS011;5029;47.378;11.776;2022-12-07T08:21:14;6.10;;;4.07;;
9976;SDS011;5029;47.378;11.776;2022-12-07T08:26:18;6.47;;;3.80;;
9976;SDS011;5029;47.378;11.776;2022-12-07T08:31:21;4.33;;;3.93;;
9976;SDS011;5029;47.378;11.776;2022-12-07T08:36:26;4.70;;;3.70;;
9976;SDS011;5029;47.378;11.776;2022-12-07T08:41:30;4.03;;;3.60;;
9976;SDS011;5029;47.378;11.776;2022-12-07T08:46:34;5.33;;;4.13;;
9976;SDS011;5029;47.378;11.776;2022-12-07T08:51:42;5.23;;;4.27;;
9976;SDS011;5029;47.378;11.776;2022-12-07T08:56:45;7.97;;;4.23;;
9976;SDS011;5029;47.378;11.776;2022-12-07T09:01:59;5.10;;;4.00;;
9976;SDS011;5029;47.378;11.776;2022-12-07T09:07:04;4.73;;;3.53;;
9976;SDS011;5029;47.378;11.776;2022-12-07T09:12:08;7.27;;;4.63;;
9976;SDS011;5029;47.378;11.776;2022-12-07T09:17:12;5.00;;;3.53;;
9976;SDS011;5029;47.378;11.776;2022-12-07T09:22:17;5.13;;;4.43;;
9976;SDS011;5029;47.378;11.776;2022-12-07T09:27:20;5.00;;;4.07;;
9976;SDS011;5029;47.378;11.776;2022-12-07T09:32:24;5.07;;;4.03;;
9976;SDS011;5029;47.378;11.776;2022-12-07T09:37:29;5.67;;;4.53;;
9976;SDS011;5029;47.378;11.776;2022-12-07T09:42:36;8.27;;;4.40;;
9976;SDS011;5029;47.378;11.776;2022-12-07T09:47:42;4.50;;;4.10;;
9976;SDS011;5029;47.378;11.776;2022-12-07T09:52:47;6.73;;;4.10;;
9976;SDS011;5029;47.378;11.776;2022-12-07T09:57:52;7.53;;;4.40;;
9976;SDS011;5029;47.378;11.776;2022-12-07T10:02:57;7.00;;;3.93;;
9976;SDS011;5029;47.378;11.776;2022-12-07T10:08:03;5.80;;;4.90;;
9976;SDS011;5029;47.378;11.776;2022-12-07T10:13:07;4.90;;;4.07;;
9976;SDS011;5029;47.378;11.776;2022-12-07T10:18:19;5.40;;;3.50;;
9976;SDS011;5029;47.378;11.776;2022-12-07T10:23:29;4.00;;;3.60;;
9976;SDS011;5029;47.378;11.776;2022-12-07T10:28:33;4.00;;;3.27;;
9976;SDS011;5029;47.378;11.776;2022-12-07T10:33:48;3.53;;;3.23;;
9976;SDS011;5029;47.378;11.776;2022-12-07T10:38:59;4.43;;;3.20;;
9976;SDS011;5029;47.378;11.776;2022-12-07T10:44:04;4.13;;;3.57;;
9976;SDS011;5029;47.378;11.776;2022-12-07T10:49:37;4.43;;;3.63;;
9976;SDS011;5029;47.378;11.776;2022-12-07T10:55:06;4.20;;;3.80;;
9976;SDS011;5029;47.378;11.776;2022-12-07T11:00:18;4.60;;;3.37;;
9976;SDS011;5029;47.378;11.776;2022-12-07T11:05:24;5.23;;;3.37;;
9976;SDS011;5029;47.378;11.776;2022-12-07T11:10:35;4.63;;;3.57;;
9976;SDS011;5029;47.378;11.776;2022-12-07T11:15:49;4.40;;;3.47;;
9976;SDS011;5029;47.378;11.776;2022-12-07T11:21:06;3.53;;;2.97;;
9976;SDS011;5029;47.378;11.776;2022-12-07T11:26:16;4.47;;;3.90;;
9976;SDS011;5029;47.378;11.776;2022-12-07T11:31:28;3.70;;;3.30;;
9976;SDS011;5029;47.378;11.776;2022-12-07T11:36:37;5.23;;;3.27;;
9976;SDS011;5029;47.378;11.776;2022-12-07T11:41:46;3.30;;;2.63;;
9976;SDS011;5029;47.378;11.776;2022-12-07T11:46:53;3.57;;;2.87;;
9976;SDS011;5029;47.378;11.776;2022-12-07T11:52:02;5.57;;;3.73;;
9976;SDS011;5029;47.378;11.776;2022-12-07T11:57:10;7.40;;;4.00;;
9976;SDS011;5029;47.378;11.776;2022-12-07T12:02:22;5.80;;;4.53;;
9976;SDS011;5029;47.378;11.776;2022-12-07T12:07:29;5.93;;;5.40;;
9976;SDS011;5029;47.378;11.776;2022-12-07T12:12:59;6.70;;;6.10;;
9976;SDS011;5029;47.378;11.776;2022-12-07T12:18:52;7.87;;;6.17;;
9976;SDS011;5029;47.378;11.776;2022-12-07T12:24:09;7.00;;;6.30;;
9976;SDS011;5029;47.378;11.776;2022-12-07T12:29:22;7.07;;;6.47;;
9976;SDS011;5029;47.378;11.776;2022-12-07T12:34:30;6.53;;;5.70;;
9976;SDS011;5029;47.378;11.776;2022-12-07T12:45:34;6.03;;;5.53;;
9976;SDS011;5029;47.378;11.776;2022-12-07T12:50:38;6.00;;;5.40;;
9976;SDS011;5029;47.378;11.776;2022-12-07T12:55:48;5.30;;;4.80;;
9976;SDS011;5029;47.378;11.776;2022-12-07T13:06:50;5.60;;;5.10;;
9976;SDS011;5029;47.378;11.776;2022-12-07T13:11:55;7.03;;;5.23;;
9976;SDS011;5029;47.378;11.776;2022-12-07T13:17:07;5.90;;;5.33;;
9976;SDS011;5029;47.378;11.776;2022-12-07T13:27:59;5.63;;;5.10;;
9976;SDS011;5029;47.378;11.776;2022-12-07T13:33:08;6.00;;;5.40;;
9976;SDS011;5029;47.378;11.776;2022-12-07T13:38:16;6.90;;;4.90;;
9976;SDS011;5029;47.378;11.776;2022-12-07T13:43:25;5.77;;;5.27;;
9976;SDS011;5029;47.378;11.776;2022-12-07T13:48:31;5.50;;;5.00;;
9976;SDS011;5029;47.378;11.776;2022-12-07T13:53:39;6.27;;;5.67;;
9976;SDS011;5029;47.378;11.776;2022-12-07T13:58:49;5.70;;;5.13;;
9976;SDS011;5029;47.378;11.776;2022-12-07T14:03:54;5.63;;;5.13;;
9976;SDS011;5029;47.378;11.776;2022-12-07T14:09:07;6.00;;;5.23;;
9976;SDS011;5029;47.378;11.776;2022-12-07T14:14:13;5.50;;;5.00;;
9976;SDS011;5029;47.378;11.776;2022-12-07T14:25:14;5.27;;;4.77;;
9976;SDS011;5029;47.378;11.776;2022-12-07T14:30:20;4.80;;;4.40;;
9976;SDS011;5029;47.378;11.776;2022-12-07T14:35:26;5.20;;;4.47;;
9976;SDS011;5029;47.378;11.776;2022-12-07T14:40:30;5.33;;;4.67;;
9976;SDS011;5029;47.378;11.776;2022-12-07T14:45:35;4.07;;;3.67;;
9976;SDS011;5029;47.378;11.776;2022-12-07T14:50:41;5.30;;;4.80;;
9976;SDS011;5029;47.378;11.776;2022-12-07T14:56:07;9.30;;;5.10;;
9976;SDS011;5029;47.378;11.776;2022-12-07T15:01:10;6.77;;;6.07;;
9976;SDS011;5029;47.378;11.776;2022-12-07T15:06:16;6.63;;;5.67;;
9976;SDS011;5029;47.378;11.776;2022-12-07T15:11:20;5.83;;;5.30;;
9976;SDS011;5029;47.378;11.776;2022-12-07T15:16:24;5.07;;;4.67;;
9976;SDS011;5029;47.378;11.776;2022-12-07T15:21:42;5.63;;;4.83;;
9976;SDS011;5029;47.378;11.776;2022-12-07T15:26:46;5.80;;;4.30;;
9976;SDS011;5029;47.378;11.776;2022-12-07T15:31:50;7.00;;;6.30;;
9976;SDS011;5029;47.378;11.776;2022-12-07T15:36:59;7.63;;;6.67;;
9976;SDS011;5029;47.378;11.776;2022-12-07T15:42:03;6.47;;;5.87;;
9976;SDS011;5029;47.378;11.776;2022-12-07T15:47:06;6.30;;;5.70;;
9976;SDS011;5029;47.378;11.776;2022-12-07T15:52:11;7.30;;;5.83;;
9976;SDS011;5029;47.378;11.776;2022-12-07T15:57:15;8.20;;;6.60;;
9976;SDS011;5029;47.378;11.776;2022-12-07T16:02:25;8.37;;;6.43;;
9976;SDS011;5029;47.378;11.776;2022-12-07T16:07:30;6.60;;;5.97;;
9976;SDS011;5029;47.378;11.776;2022-12-07T16:12:34;7.83;;;6.47;;
9976;SDS011;5029;47.378;11.776;2022-12-07T16:17:37;23.83;;;21.73;;
9976;SDS011;5029;47.378;11.776;2022-12-07T16:22:42;11.63;;;10.53;;
9976;SDS011;5029;47.378;11.776;2022-12-07T16:27:46;8.17;;;7.30;;
9976;SDS011;5029;47.378;11.776;2022-12-07T16:32:49;7.17;;;6.00;;
9976;SDS011;5029;47.378;11.776;2022-12-07T16:37:54;7.77;;;6.23;;
9976;SDS011;5029;47.378;11.776;2022-12-07T16:42:57;9.23;;;6.03;;
9976;SDS011;5029;47.378;11.776;2022-12-07T16:48:02;6.20;;;5.60;;
9976;SDS011;5029;47.378;11.776;2022-12-07T16:53:07;5.90;;;5.40;;
9976;SDS011;5029;47.378;11.776;2022-12-07T16:58:11;7.10;;;6.40;;
9976;SDS011;5029;47.378;11.776;2022-12-07T17:03:16;6.97;;;5.77;;
9976;SDS011;5029;47.378;11.776;2022-12-07T17:08:23;8.20;;;5.60;;
9976;SDS011;5029;47.378;11.776;2022-12-07T17:13:27;6.70;;;6.00;;
9976;SDS011;5029;47.378;11.776;2022-12-07T17:18:47;6.83;;;6.07;;
9976;SDS011;5029;47.378;11.776;2022-12-07T17:23:53;6.30;;;5.70;;
9976;SDS011;5029;47.378;11.776;2022-12-07T17:28:56;11.87;;;9.80;;
9976;SDS011;5029;47.378;11.776;2022-12-07T17:34:01;6.50;;;5.90;;
9976;SDS011;5029;47.378;11.776;2022-12-07T17:39:07;5.80;;;4.83;;
9976;SDS011;5029;47.378;11.776;2022-12-07T17:44:12;5.33;;;4.00;;
9976;SDS011;5029;47.378;11.776;2022-12-07T17:49:17;9.23;;;7.13;;
9976;SDS011;5029;47.378;11.776;2022-12-07T17:54:22;11.47;;;9.47;;
9976;SDS011;5029;47.378;11.776;2022-12-07T17:59:28;9.47;;;8.27;;
9976;SDS011;5029;47.378;11.776;2022-12-07T18:04:32;10.37;;;8.57;;
9976;SDS011;5029;47.378;11.776;2022-12-07T18:09:37;9.90;;;8.90;;
9976;SDS011;5029;47.378;11.776;2022-12-07T18:14:40;7.10;;;6.40;;
9976;SDS011;5029;47.378;11.776;2022-12-07T18:19:44;7.50;;;6.70;;
9976;SDS011;5029;47.378;11.776;2022-12-07T18:24:51;8.47;;;6.67;;
9976;SDS011;5029;47.378;11.776;2022-12-07T18:29:56;8.20;;;6.83;;
9976;SDS011;5029;47.378;11.776;2022-12-07T18:35:00;6.83;;;5.53;;
9976;SDS011;5029;47.378;11.776;2022-12-07T18:40:08;6.73;;;6.03;;
9976;SDS011;5029;47.378;11.776;2022-12-07T18:45:14;6.20;;;5.57;;
9976;SDS011;5029;47.378;11.776;2022-12-07T18:50:18;8.13;;;6.40;;
9976;SDS011;5029;47.378;11.776;2022-12-07T18:55:24;6.33;;;5.73;;
9976;SDS011;5029;47.378;11.776;2022-12-07T19:00:31;6.77;;;6.10;;
9976;SDS011;5029;47.378;11.776;2022-12-07T19:05:37;7.33;;;6.13;;
9976;SDS011;5029;47.378;11.776;2022-12-07T19:10:43;7.47;;;6.60;;
9976;SDS011;5029;47.378;11.776;2022-12-07T19:15:49;8.43;;;7.63;;
9976;SDS011;5029;47.378;11.776;2022-12-07T19:20:55;8.00;;;7.20;;
9976;SDS011;5029;47.378;11.776;2022-12-07T19:26:01;11.47;;;7.40;;
9976;SDS011;5029;47.378;11.776;2022-12-07T19:31:06;8.77;;;7.57;;
9976;SDS011;5029;47.378;11.776;2022-12-07T19:36:11;7.83;;;7.13;;
9976;SDS011;5029;47.378;11.776;2022-12-07T19:41:17;7.33;;;6.53;;
9976;SDS011;5029;47.378;11.776;2022-12-07T19:46:38;8.27;;;7.47;;
9976;SDS011;5029;47.378;11.776;2022-12-07T19:51:47;7.37;;;6.60;;
9976;SDS011;5029;47.378;11.776;2022-12-07T19:56:54;6.97;;;6.27;;
9976;SDS011;5029;47.378;11.776;2022-12-07T20:01:59;8.70;;;7.30;;
9976;SDS011;5029;47.378;11.776;2022-12-07T20:07:03;9.80;;;7.70;;
9976;SDS011;5029;47.378;11.776;2022-12-07T20:12:10;9.00;;;7.37;;
9976;SDS011;5029;47.378;11.776;2022-12-07T20:17:33;7.80;;;7.07;;
9976;SDS011;5029;47.378;11.776;2022-12-07T20:22:37;7.27;;;6.27;;
9976;SDS011;5029;47.378;11.776;2022-12-07T20:27:45;7.53;;;6.77;;
9976;SDS011;5029;47.378;11.776;2022-12-07T20:32:50;7.90;;;7.10;;
9976;SDS011;5029;47.378;11.776;2022-12-07T20:37:56;7.83;;;6.77;;
9976;SDS011;5029;47.378;11.776;2022-12-07T20:43:03;8.00;;;7.03;;
9976;SDS011;5029;47.378;11.776;2022-12-07T20:48:10;7.93;;;7.03;;
9976;SDS011;5029;47.378;11.776;2022-12-07T20:53:14;7.90;;;7.07;;
9976;SDS011;5029;47.378;11.776;2022-12-07T20:58:20;11.60;;;8.00;;
9976;SDS011;5029;47.378;11.776;2022-12-07T21:03:29;8.47;;;7.67;;
9976;SDS011;5029;47.378;11.776;2022-12-07T21:08:32;8.33;;;7.43;;
9976;SDS011;5029;47.378;11.776;2022-12-07T21:13:39;8.57;;;7.47;;
9976;SDS011;5029;47.378;11.776;2022-12-07T21:18:45;7.90;;;7.10;;
9976;SDS011;5029;47.378;11.776;2022-12-07T21:23:51;8.40;;;7.03;;
9976;SDS011;5029;47.378;11.776;2022-12-07T21:29:04;7.97;;;7.00;;
9976;SDS011;5029;47.378;11.776;2022-12-07T21:34:09;7.37;;;6.63;;
9976;SDS011;5029;47.378;11.776;2022-12-07T21:39:12;7.57;;;6.87;;
9976;SDS011;5029;47.378;11.776;2022-12-07T21:44:19;8.87;;;7.43;;
9976;SDS011;5029;47.378;11.776;2022-12-07T21:49:22;11.33;;;9.60;;
9976;SDS011;5029;47.378;11.776;2022-12-07T21:54:26;11.80;;;9.20;;
9976;SDS011;5029;47.378;11.776;2022-12-07T21:59:31;10.13;;;9.13;;
9976;SDS011;5029;47.378;11.776;2022-12-07T22:04:34;9.33;;;7.67;;
9976;SDS011;5029;47.378;11.776;2022-12-07T22:09:38;9.93;;;7.13;;
9976;SDS011;5029;47.378;11.776;2022-12-07T22:14:45;8.73;;;6.67;;
9976;SDS011;5029;47.378;11.776;2022-12-07T22:20:07;8.23;;;6.53;;
9976;SDS011;5029;47.378;11.776;2022-12-07T22:25:11;6.23;;;5.10;;
9976;SDS011;5029;47.378;11.776;2022-12-07T22:30:16;5.67;;;4.77;;
9976;SDS011;5029;47.378;11.776;2022-12-07T22:35:20;6.97;;;5.30;;
9976;SDS011;5029;47.378;11.776;2022-12-07T22:40:26;5.60;;;5.00;;
9976;SDS011;5029;47.378;11.776;2022-12-07T22:45:31;6.67;;;5.13;;
9976;SDS011;5029;47.378;11.776;2022-12-07T22:50:40;5.77;;;4.97;;
9976;SDS011;5029;47.378;11.776;2022-12-07T22:55:43;6.50;;;5.30;;
9976;SDS011;5029;47.378;11.776;2022-12-07T23:00:48;5.90;;;5.00;;
9976;SDS011;5029;47.378;11.776;2022-12-07T23:05:52;6.00;;;5.40;;
9976;SDS011;5029;47.378;11.776;2022-12-07T23:10:56;5.60;;;5.00;;
9976;SDS011;5029;47.378;11.776;2022-12-07T23:16:07;6.13;;;4.70;;
9976;SDS011;5029;47.378;11.776;2022-12-07T23:21:12;5.30;;;4.37;;
9976;SDS011;5029;47.378;11.776;2022-12-07T23:26:17;4.93;;;4.37;;
9976;SDS011;5029;47.378;11.776;2022-12-07T23:31:22;5.10;;;4.60;;
9976;SDS011;5029;47.378;11.776;2022-12-07T23:36:40;7.10;;;5.30;;
9976;SDS011;5029;47.378;11.776;2022-12-07T23:41:43;5.53;;;4.93;;
9976;SDS011;5029;47.378;11.776;2022-12-07T23:46:48;6.17;;;5.57;;
9976;SDS011;5029;47.378;11.776;2022-12-07T23:51:52;5.73;;;5.17;;
9976;SDS011;5029;47.378;11.776;2022-12-07T23:56:55;6.63;;;5.50;;
